Riverside — WDC2627 — position and weather

sailwx.info

Track history (hours):
 
Tides and Currents Weather Stations Pressure Air Temp Water Temp Dewpoint Dewpoint Depression Visibility Wind Speed Wind Dir Waves Ship Positions

Riverside

Owner: Kirby Inland Marine, LP, Houston, TX. More information available from US FCC via Universal Licensing System and Coast Guard Vessel Documentation Center.

Last reported at 2017-Nov-23 05:00 UTC. Time now 2017-Nov-23 05:27 UTC.
Position N 30°06' W 093°19'.

Length 201 m; draft 2.6 m.

Type: . MMSI: 366995750.

Date/timePositionNaut miles runAvg speedWind from/ knotsBaromVisibWave heightAir tempDewpointWater temp
2017-Nov-23 05:00N 30°06' W 093°19'0 0.2
2017-Nov-23 04:30N 30°06' W 093°19'0 0.0
2017-Nov-23 04:00N 30°06' W 093°19'0 0.1
2017-Nov-23 03:30N 30°06' W 093°19'0 0.2
2017-Nov-23 03:00N 30°06' W 093°19'0 0.1
2017-Nov-23 02:30N 30°06' W 093°19'0 0.0
2017-Nov-23 02:00N 30°06' W 093°19'0 0.0
2017-Nov-23 01:30N 30°06' W 093°19'0 0.0
2017-Nov-23 01:00N 30°06' W 093°19'0 0.0
2017-Nov-23 00:30N 30°06' W 093°19'0 0.0
2017-Nov-23 00:00N 30°06' W 093°19'0 0.0
2017-Nov-22 23:30N 30°06' W 093°19'0 0.0
2017-Nov-22 23:00N 30°06' W 093°19'0 0.0
2017-Nov-22 22:30N 30°06' W 093°19'0 0.0
2017-Nov-22 22:00N 30°06' W 093°19'0 0.0
2017-Nov-22 21:30N 30°06' W 093°19'0 0.1
2017-Nov-22 21:00N 30°06' W 093°19'0 0.0
2017-Nov-22 20:30N 30°06' W 093°19'0 0.0
2017-Nov-22 20:00N 30°06' W 093°19'0 0.0
2017-Nov-22 19:30N 30°06' W 093°19'  
2017-Nov-19 22:21N 29°46' W 095°05'0 0.1
2017-Nov-19 16:11N 29°46' W 095°05'1 6.5
2017-Nov-19 15:58N 29°45' W 095°06'7 0.3
2017-Nov-18 15:49N 29°43' W 095°14'0 0.0
2017-Nov-18 13:25N 29°43' W 095°14'8 0.7
2017-Nov-18 02:59N 29°45' W 095°06'1 0.3
2017-Nov-17 23:55N 29°46' W 095°05'1 1.9
2017-Nov-17 23:25N 29°46' W 095°06'0 0.0
2017-Nov-17 22:54N 29°46' W 095°06'0 0.0
2017-Nov-17 22:29N 29°46' W 095°06'0 0.0
2017-Nov-17 21:58N 29°46' W 095°06'0 0.0
2017-Nov-17 21:10N 29°46' W 095°06'0 0.0
2017-Nov-17 20:51N 29°46' W 095°06'0 0.0
2017-Nov-17 20:27N 29°46' W 095°06'0 0.0
2017-Nov-17 19:57N 29°46' W 095°06'1 2.4
2017-Nov-17 19:29N 29°46' W 095°05'1 0.2
2017-Nov-17 16:19N 29°46' W 095°04'1 0.3
2017-Nov-17 14:22N 29°46' W 095°05'1 2.2
2017-Nov-17 13:57N 29°47' W 095°05'0 0.0
2017-Nov-17 13:30N 29°47' W 095°05'2 3.1
2017-Nov-17 13:00N 29°46' W 095°06'0 0.0
2017-Nov-17 12:22N 29°46' W 095°06'1 1.8
2017-Nov-17 11:46N 29°46' W 095°05'2 6.5
2017-Nov-17 11:28N 29°44' W 095°03'2 2.7
2017-Nov-17 10:47N 29°43' W 095°01'1 4.8
2017-Nov-17 10:29N 29°44' W 095°03'3 5.6
2017-Nov-17 10:00N 29°46' W 095°05'1 1.0
2017-Nov-17 08:55N 29°46' W 095°06'0 0.0
2017-Nov-17 07:48N 29°46' W 095°06'1 0.7
2017-Nov-17 06:35N 29°45' W 095°06'4 0.6
2017-Nov-17 00:21N 29°44' W 095°02'2 5.4
2017-Nov-16 23:59N 29°42' W 095°00'3 5.9
2017-Nov-16 23:30N 29°40' W 094°58'3 6.1
2017-Nov-16 23:00N 29°37' W 094°57'3 6.0
2017-Nov-16 22:30N 29°34' W 094°56'3 6.3
2017-Nov-16 22:00N 29°32' W 094°53'73 3.2
2017-Nov-15 23:04N 30°04' W 093°37'0 4.2
2017-Nov-15 22:58N 30°04' W 093°37'2 4.3
2017-Nov-15 22:28N 30°04' W 093°34'2 4.3
2017-Nov-15 22:00N 30°04' W 093°32'2 4.4
2017-Nov-15 21:30N 30°04' W 093°30'2 4.5
2017-Nov-15 21:00N 30°04' W 093°27'2 4.5
2017-Nov-15 20:30N 30°04' W 093°24'2 4.3
2017-Nov-15 20:01N 30°04' W 093°22'0 0.1
2017-Nov-15 19:30N 30°04' W 093°22'0 0.7
2017-Nov-15 19:00N 30°04' W 093°21'0 0.8
2017-Nov-15 18:30N 30°04' W 093°22'2 3.2
2017-Nov-15 18:00N 30°05' W 093°20'2 4.3
2017-Nov-15 17:30N 30°07' W 093°20'3 6.2
2017-Nov-15 17:00N 30°10' W 093°19'3 6.0
2017-Nov-15 16:31N 30°12' W 093°17'3 5.2
2017-Nov-15 16:00N 30°13' W 093°14'2 3.9
2017-Nov-15 15:30N 30°15' W 093°14'1 2.2
2017-Nov-15 15:00N 30°16' W 093°13'1 2.6
2017-Nov-15 14:30N 30°17' W 093°12'1 2.2
2017-Nov-15 13:57N 30°18' W 093°11'1 2.0
2017-Nov-15 13:25N 30°18' W 093°10'2 0.1
2017-Nov-14 17:47N 30°18' W 093°08'1 2.9
2017-Nov-14 17:25N 30°18' W 093°09'1 2.6
2017-Nov-14 16:52N 30°17' W 093°10'1 1.8
2017-Nov-14 16:29N 30°17' W 093°11'2 4.1
2017-Nov-14 16:00N 30°16' W 093°12'1 2.9
2017-Nov-14 15:30N 30°15' W 093°14'2 4.3
2017-Nov-14 15:00N 30°13' W 093°15'0 0.6
2017-Nov-14 14:30N 30°13' W 093°15'3 5.6
2017-Nov-14 13:59N 30°11' W 093°18'2 4.2
2017-Nov-14 13:30N 30°10' W 093°19'2 4.6
2017-Nov-14 13:00N 30°08' W 093°20'3 5.8
2017-Nov-14 12:30N 30°05' W 093°20'2 2.8
2017-Nov-14 11:57N 30°04' W 093°22'0 0.0
2017-Nov-14 10:31N 30°04' W 093°21'0 0.0
2017-Nov-14 10:29N 30°04' W 093°21'0 0.0
2017-Nov-14 01:42N 30°04' W 093°21'0 0.0
2017-Nov-14 00:53N 30°04' W 093°21'0 0.0
2017-Nov-14 00:29N 30°04' W 093°21'0 0.0
2017-Nov-13 22:13N 30°04' W 093°21'0 0.0
2017-Nov-13 21:53N 30°04' W 093°21'  
Track history (hours):
 
Tides and Currents Weather Stations Pressure Air Temp Water Temp Dewpoint Dewpoint Depression Visibility Wind Speed Wind Dir Waves Ship Positions

Riverside

Owner: Kirby Inland Marine, LP, Houston, TX. More information available from US FCC via Universal Licensing System and Coast Guard Vessel Documentation Center.

Last reported at 2017-Nov-23 05:00 UTC. Time now 2017-Nov-23 05:27 UTC.
Position N 30°06' W 093°19'.

Length 201 m; draft 2.6 m.

Type: . MMSI: 366995750.

Date/timePositionNaut miles runAvg speedWind from/ knotsBaromVisibWave heightAir tempDewpointWater temp
2017-Nov-23 05:00N 30°06' W 093°19'0 0.2
2017-Nov-23 04:30N 30°06' W 093°19'0 0.0
2017-Nov-23 04:00N 30°06' W 093°19'0 0.1
2017-Nov-23 03:30N 30°06' W 093°19'0 0.2
2017-Nov-23 03:00N 30°06' W 093°19'0 0.1
2017-Nov-23 02:30N 30°06' W 093°19'0 0.0
2017-Nov-23 02:00N 30°06' W 093°19'0 0.0
2017-Nov-23 01:30N 30°06' W 093°19'0 0.0
2017-Nov-23 01:00N 30°06' W 093°19'0 0.0
2017-Nov-23 00:30N 30°06' W 093°19'0 0.0
2017-Nov-23 00:00N 30°06' W 093°19'0 0.0
2017-Nov-22 23:30N 30°06' W 093°19'0 0.0
2017-Nov-22 23:00N 30°06' W 093°19'0 0.0
2017-Nov-22 22:30N 30°06' W 093°19'0 0.0
2017-Nov-22 22:00N 30°06' W 093°19'0 0.0
2017-Nov-22 21:30N 30°06' W 093°19'0 0.1
2017-Nov-22 21:00N 30°06' W 093°19'0 0.0
2017-Nov-22 20:30N 30°06' W 093°19'0 0.0
2017-Nov-22 20:00N 30°06' W 093°19'0 0.0
2017-Nov-22 19:30N 30°06' W 093°19'  
2017-Nov-19 22:21N 29°46' W 095°05'0 0.1
2017-Nov-19 16:11N 29°46' W 095°05'1 6.5
2017-Nov-19 15:58N 29°45' W 095°06'7 0.3
2017-Nov-18 15:49N 29°43' W 095°14'0 0.0
2017-Nov-18 13:25N 29°43' W 095°14'8 0.7
2017-Nov-18 02:59N 29°45' W 095°06'1 0.3
2017-Nov-17 23:55N 29°46' W 095°05'1 1.9
2017-Nov-17 23:25N 29°46' W 095°06'0 0.0
2017-Nov-17 22:54N 29°46' W 095°06'0 0.0
2017-Nov-17 22:29N 29°46' W 095°06'0 0.0
2017-Nov-17 21:58N 29°46' W 095°06'0 0.0
2017-Nov-17 21:10N 29°46' W 095°06'0 0.0
2017-Nov-17 20:51N 29°46' W 095°06'0 0.0
2017-Nov-17 20:27N 29°46' W 095°06'0 0.0
2017-Nov-17 19:57N 29°46' W 095°06'1 2.4
2017-Nov-17 19:29N 29°46' W 095°05'1 0.2
2017-Nov-17 16:19N 29°46' W 095°04'1 0.3
2017-Nov-17 14:22N 29°46' W 095°05'1 2.2
2017-Nov-17 13:57N 29°47' W 095°05'0 0.0
2017-Nov-17 13:30N 29°47' W 095°05'2 3.1
2017-Nov-17 13:00N 29°46' W 095°06'0 0.0
2017-Nov-17 12:22N 29°46' W 095°06'1 1.8
2017-Nov-17 11:46N 29°46' W 095°05'2 6.5
2017-Nov-17 11:28N 29°44' W 095°03'2 2.7
2017-Nov-17 10:47N 29°43' W 095°01'1 4.8
2017-Nov-17 10:29N 29°44' W 095°03'3 5.6
2017-Nov-17 10:00N 29°46' W 095°05'1 1.0
2017-Nov-17 08:55N 29°46' W 095°06'0 0.0
2017-Nov-17 07:48N 29°46' W 095°06'1 0.7
2017-Nov-17 06:35N 29°45' W 095°06'4 0.6
2017-Nov-17 00:21N 29°44' W 095°02'2 5.4
2017-Nov-16 23:59N 29°42' W 095°00'3 5.9
2017-Nov-16 23:30N 29°40' W 094°58'3 6.1
2017-Nov-16 23:00N 29°37' W 094°57'3 6.0
2017-Nov-16 22:30N 29°34' W 094°56'3 6.3
2017-Nov-16 22:00N 29°32' W 094°53'73 3.2
2017-Nov-15 23:04N 30°04' W 093°37'0 4.2
2017-Nov-15 22:58N 30°04' W 093°37'2 4.3
2017-Nov-15 22:28N 30°04' W 093°34'2 4.3
2017-Nov-15 22:00N 30°04' W 093°32'2 4.4
2017-Nov-15 21:30N 30°04' W 093°30'2 4.5
2017-Nov-15 21:00N 30°04' W 093°27'2 4.5
2017-Nov-15 20:30N 30°04' W 093°24'2 4.3
2017-Nov-15 20:01N 30°04' W 093°22'0 0.1
2017-Nov-15 19:30N 30°04' W 093°22'0 0.7
2017-Nov-15 19:00N 30°04' W 093°21'0 0.8
2017-Nov-15 18:30N 30°04' W 093°22'2 3.2
2017-Nov-15 18:00N 30°05' W 093°20'2 4.3
2017-Nov-15 17:30N 30°07' W 093°20'3 6.2
2017-Nov-15 17:00N 30°10' W 093°19'3 6.0
2017-Nov-15 16:31N 30°12' W 093°17'3 5.2
2017-Nov-15 16:00N 30°13' W 093°14'2 3.9
2017-Nov-15 15:30N 30°15' W 093°14'1 2.2
2017-Nov-15 15:00N 30°16' W 093°13'1 2.6
2017-Nov-15 14:30N 30°17' W 093°12'1 2.2
2017-Nov-15 13:57N 30°18' W 093°11'1 2.0
2017-Nov-15 13:25N 30°18' W 093°10'2 0.1
2017-Nov-14 17:47N 30°18' W 093°08'1 2.9
2017-Nov-14 17:25N 30°18' W 093°09'1 2.6
2017-Nov-14 16:52N 30°17' W 093°10'1 1.8
2017-Nov-14 16:29N 30°17' W 093°11'2 4.1
2017-Nov-14 16:00N 30°16' W 093°12'1 2.9
2017-Nov-14 15:30N 30°15' W 093°14'2 4.3
2017-Nov-14 15:00N 30°13' W 093°15'0 0.6
2017-Nov-14 14:30N 30°13' W 093°15'3 5.6
2017-Nov-14 13:59N 30°11' W 093°18'2 4.2
2017-Nov-14 13:30N 30°10' W 093°19'2 4.6
2017-Nov-14 13:00N 30°08' W 093°20'3 5.8
2017-Nov-14 12:30N 30°05' W 093°20'2 2.8
2017-Nov-14 11:57N 30°04' W 093°22'0 0.0
2017-Nov-14 10:31N 30°04' W 093°21'0 0.0
2017-Nov-14 10:29N 30°04' W 093°21'0 0.0
2017-Nov-14 01:42N 30°04' W 093°21'0 0.0
2017-Nov-14 00:53N 30°04' W 093°21'0 0.0
2017-Nov-14 00:29N 30°04' W 093°21'0 0.0
2017-Nov-13 22:13N 30°04' W 093°21'0 0.0
2017-Nov-13 21:53N 30°04' W 093°21'  

Dump ship's entire track history